createdAt,value
2017-07-05T00:00:13.430Z,0
2017-07-05T00:01:13.759Z,0
2017-07-05T00:02:13.451Z,0
2017-07-05T00:03:13.803Z,0
2017-07-05T00:04:28.428Z,0
2017-07-05T00:06:13.870Z,0
2017-07-05T00:07:13.897Z,0
2017-07-05T00:08:28.230Z,0
2017-07-05T00:09:13.638Z,0
2017-07-05T00:10:13.958Z,0
2017-07-05T00:11:13.688Z,0
2017-07-05T00:12:13.995Z,0
2017-07-05T00:13:13.417Z,0
2017-07-05T00:14:14.051Z,0
2017-07-05T00:15:13.440Z,0
2017-07-05T00:16:13.793Z,0
2017-07-05T00:17:14.203Z,0
2017-07-05T00:18:13.840Z,0
2017-07-05T00:19:28.137Z,0
2017-07-05T00:20:14.196Z,0
2017-07-05T00:21:14.218Z,0
2017-07-05T00:22:12.993Z,0
2017-07-05T00:23:28.851Z,0
2017-07-05T00:24:14.001Z,0
2017-07-05T00:25:14.383Z,0
2017-07-05T00:26:13.737Z,0
2017-07-05T00:27:14.651Z,0
2017-07-05T00:28:14.377Z,0
2017-07-05T00:29:14.409Z,0
2017-07-05T00:30:14.456Z,0
2017-07-05T00:31:14.161Z,0
2017-07-05T00:32:14.209Z,0
2017-07-05T00:33:14.504Z,0
2017-07-05T00:34:28.817Z,0
2017-07-05T00:35:14.565Z,0
2017-07-05T00:36:14.596Z,0
2017-07-05T00:37:14.296Z,0
2017-07-05T00:38:14.308Z,0
2017-07-05T00:39:14.331Z,0
2017-07-05T00:40:14.699Z,0
2017-07-05T00:41:14.705Z,0
2017-07-05T00:42:14.455Z,0
2017-07-05T00:43:14.110Z,0
2017-07-05T00:44:14.444Z,0
2017-07-05T00:45:28.777Z,0
2017-07-05T00:47:14.862Z,0
2017-07-05T00:48:14.542Z,0
2017-07-05T00:49:14.920Z,0
2017-07-05T00:50:14.897Z,0
2017-07-05T00:51:14.301Z,0
2017-07-05T00:52:14.964Z,0
2017-07-05T00:53:14.414Z,0
2017-07-05T00:54:14.705Z,0
2017-07-05T00:55:28.990Z,0
2017-07-05T00:56:29.350Z,0
2017-07-05T00:57:15.065Z,0
2017-07-05T00:58:15.126Z,0
2017-07-05T00:59:15.132Z,0
2017-07-05T01:00:15.184Z,0
2017-07-05T01:01:15.192Z,0
2017-07-05T01:02:15.216Z,0
2017-07-05T01:03:29.847Z,0
2017-07-05T01:04:29.868Z,0
2017-07-05T01:05:15.260Z,0
2017-07-05T01:06:14.994Z,0
2017-07-05T01:07:29.908Z,0
2017-07-05T01:08:15.333Z,0
2017-07-05T01:11:30.030Z,0
2017-07-05T01:12:15.135Z,0
2017-07-05T01:13:15.155Z,0
2017-07-05T01:14:15.163Z,0
2017-07-05T01:15:15.208Z,0
2017-07-05T01:16:15.208Z,0
2017-07-05T01:17:30.154Z,0
2017-07-05T01:18:15.572Z,0
2017-07-05T01:19:15.304Z,0
2017-07-05T01:20:15.620Z,0
2017-07-05T01:21:30.271Z,0
2017-07-05T01:22:15.047Z,0
2017-07-05T01:23:14.751Z,0
2017-07-05T01:24:30.311Z,0
2017-07-05T01:25:30.013Z,0
2017-07-05T01:26:15.479Z,0
2017-07-05T01:27:30.061Z,0
2017-07-05T01:28:15.914Z,0
2017-07-05T01:29:15.855Z,0
2017-07-05T01:30:15.241Z,0
2017-07-05T01:31:14.957Z,0
2017-07-05T01:32:15.611Z,0
2017-07-05T01:33:15.324Z,0
2017-07-05T01:34:15.021Z,0
2017-07-05T01:35:15.985Z,0
2017-07-05T01:36:15.395Z,0
2017-07-05T01:38:16.098Z,0
2017-07-05T01:39:16.076Z,0
2017-07-05T01:42:15.508Z,0
2017-07-05T01:43:30.785Z,0
2017-07-05T01:44:30.478Z,0
2017-07-05T01:45:16.248Z,0
2017-07-05T01:46:15.312Z,0
2017-07-05T01:47:15.971Z,0
2017-07-05T01:48:30.894Z,0
2017-07-05T01:49:16.319Z,0
2017-07-05T01:50:16.039Z,0
2017-07-05T01:51:16.372Z,0
2017-07-05T01:52:16.087Z,0
2017-07-05T01:54:16.140Z,0
2017-07-05T01:55:16.465Z,0
2017-07-05T01:56:16.536Z,0
2017-07-05T01:57:30.791Z,0
2017-07-05T01:59:15.912Z,0
2017-07-05T02:00:16.588Z,0
2017-07-05T02:01:16.291Z,0
2017-07-05T02:02:31.242Z,0
2017-07-05T02:03:16.683Z,0
2017-07-05T02:04:16.670Z,0
2017-07-05T02:05:16.711Z,0
2017-07-05T02:06:16.719Z,0
2017-07-05T02:07:16.452Z,0
2017-07-05T02:08:16.449Z,0
2017-07-05T02:09:16.498Z,0
2017-07-05T02:10:16.820Z,0
2017-07-05T02:12:16.223Z,0
2017-07-05T02:13:16.894Z,0
2017-07-05T02:14:16.905Z,0
2017-07-05T02:15:16.640Z,0
2017-07-05T02:16:31.267Z,0
2017-07-05T02:18:17.017Z,0
2017-07-05T02:19:16.718Z,0
2017-07-05T02:20:15.786Z,0
2017-07-05T02:21:31.689Z,0
2017-07-05T02:22:16.152Z,0
2017-07-05T02:23:16.849Z,0
2017-07-05T02:24:17.216Z,0
2017-07-05T02:25:16.533Z,0
2017-07-05T02:26:16.905Z,0
2017-07-05T02:27:17.222Z,0
2017-07-05T02:28:31.225Z,0
2017-07-05T02:29:17.271Z,0
2017-07-05T02:30:31.889Z,0
2017-07-05T02:31:17.331Z,0
2017-07-05T02:32:17.021Z,0
2017-07-05T02:33:17.382Z,0
2017-07-05T02:34:17.432Z,0
2017-07-05T02:35:17.426Z,0
2017-07-05T02:36:17.107Z,0
2017-07-05T02:37:16.520Z,0
2017-07-05T02:38:17.138Z,0
2017-07-05T02:41:16.914Z,0
2017-07-05T02:42:31.553Z,0
2017-07-05T02:43:17.591Z,0
2017-07-05T02:44:32.230Z,0
2017-07-05T02:45:17.371Z,0
2017-07-05T02:46:32.289Z,0
2017-07-05T02:47:32.309Z,0
2017-07-05T02:48:17.076Z,0
2017-07-05T02:49:17.165Z,0
2017-07-05T02:50:17.458Z,0
2017-07-05T02:51:17.775Z,0
2017-07-05T02:52:17.823Z,0
2017-07-05T02:53:17.500Z,0
2017-07-05T02:54:16.911Z,0
2017-07-05T02:55:17.868Z,0
2017-07-05T02:56:32.197Z,0
2017-07-05T02:57:17.634Z,0
2017-07-05T02:58:17.964Z,0
2017-07-05T02:59:17.651Z,0
2017-07-05T03:00:17.978Z,0
2017-07-05T03:01:17.728Z,0
2017-07-05T03:02:32.329Z,0
2017-07-05T03:03:18.091Z,0
2017-07-05T03:04:32.051Z,0
2017-07-05T03:05:32.731Z,5
2017-07-05T03:06:17.843Z,5
2017-07-05T03:07:17.552Z,5
2017-07-05T03:09:17.592Z,5
2017-07-05T03:10:18.230Z,5
2017-07-05T03:11:32.539Z,5
2017-07-05T03:12:17.965Z,5
2017-07-05T03:13:18.327Z,5
2017-07-05T03:14:18.345Z,5
2017-07-05T03:15:32.315Z,5
2017-07-05T03:16:18.375Z,5
2017-07-05T03:17:32.688Z,5
2017-07-05T03:18:33.028Z,5
2017-07-05T03:19:18.458Z,5
2017-07-05T03:20:18.160Z,10
2017-07-05T03:21:33.082Z,10
2017-07-05T03:22:32.179Z,10
2017-07-05T03:23:17.901Z,10
2017-07-05T03:24:18.257Z,10
2017-07-05T03:26:18.604Z,15
2017-07-05T03:27:18.328Z,15
2017-07-05T03:28:18.634Z,15
2017-07-05T03:29:18.374Z,15
2017-07-05T03:30:18.068Z,15
2017-07-05T03:31:18.757Z,15
2017-07-05T03:32:18.112Z,15
2017-07-05T03:33:47.670Z,15
2017-07-05T03:34:18.784Z,15
2017-07-05T03:35:18.831Z,15
2017-07-05T03:36:18.857Z,15
2017-07-05T03:37:18.916Z,15
2017-07-05T03:38:18.918Z,15
2017-07-05T03:39:33.507Z,15
2017-07-05T03:40:32.917Z,15
2017-07-05T03:41:19.011Z,15
2017-07-05T03:42:18.986Z,15
2017-07-05T03:43:32.977Z,15
2017-07-05T03:44:19.034Z,15
2017-07-05T03:46:18.777Z,20
2017-07-05T03:47:18.793Z,20
2017-07-05T03:48:33.746Z,20
2017-07-05T03:50:19.192Z,20
2017-07-05T03:51:18.890Z,20
2017-07-05T03:52:19.200Z,20
2017-07-05T03:53:19.254Z,20
2017-07-05T03:54:18.956Z,20
2017-07-05T03:55:33.913Z,20
2017-07-05T03:56:18.683Z,20
2017-07-05T03:58:19.369Z,25
2017-07-05T03:59:19.378Z,30
2017-07-05T04:00:19.422Z,30
2017-07-05T04:01:19.121Z,35
2017-07-05T04:02:19.483Z,30
2017-07-05T04:03:19.487Z,25
2017-07-05T04:04:19.202Z,25
2017-07-05T04:06:19.552Z,25
2017-07-05T04:07:19.595Z,25
2017-07-05T04:08:34.202Z,25
2017-07-05T04:09:34.244Z,25
2017-07-05T04:10:34.252Z,25
2017-07-05T04:11:19.366Z,25
2017-07-05T04:12:19.700Z,30
2017-07-05T04:13:19.739Z,30
2017-07-05T04:14:19.431Z,30
2017-07-05T04:15:19.142Z,30
2017-07-05T04:17:19.830Z,30
2017-07-05T04:18:19.830Z,30
2017-07-05T04:19:19.567Z,30
2017-07-05T04:20:34.181Z,30
2017-07-05T04:21:34.506Z,30
2017-07-05T04:22:19.604Z,25
2017-07-05T04:23:19.610Z,25
2017-07-05T04:24:19.682Z,20
2017-07-05T04:25:20.012Z,20
2017-07-05T04:27:19.750Z,20
2017-07-05T04:28:20.095Z,20
2017-07-05T04:29:34.374Z,25
2017-07-05T04:30:20.118Z,25
2017-07-05T04:31:20.162Z,25
2017-07-05T04:33:34.812Z,30
2017-07-05T04:34:34.518Z,30
2017-07-05T04:35:19.933Z,30
2017-07-05T04:36:34.567Z,25
2017-07-05T04:37:34.558Z,25
2017-07-05T04:38:19.370Z,25
2017-07-05T04:39:49.231Z,25
2017-07-05T04:40:20.359Z,25
2017-07-05T04:41:20.378Z,25
2017-07-05T04:42:20.429Z,25
2017-07-05T04:43:19.804Z,25
2017-07-05T04:44:20.154Z,30
2017-07-05T04:45:20.484Z,30
2017-07-05T04:46:20.522Z,30
2017-07-05T04:47:20.571Z,35
2017-07-05T04:48:20.256Z,40
2017-07-05T04:49:20.560Z,40
2017-07-05T04:50:20.626Z,45
2017-07-05T04:51:35.259Z,45
2017-07-05T04:52:20.342Z,45
2017-07-05T04:54:20.371Z,35
2017-07-05T04:55:35.318Z,30
2017-07-05T04:56:35.341Z,30
2017-07-05T04:57:20.782Z,25
2017-07-05T04:58:35.092Z,25
2017-07-05T04:59:49.703Z,30
2017-07-05T05:00:35.446Z,30
2017-07-05T05:01:20.873Z,30
2017-07-05T05:02:20.583Z,30
2017-07-05T05:03:20.928Z,35
2017-07-05T05:04:35.215Z,40
2017-07-05T05:05:20.976Z,45
2017-07-05T05:06:35.278Z,45
2017-07-05T05:07:21.005Z,45
2017-07-05T05:08:50.259Z,45
2017-07-05T05:10:35.699Z,45
2017-07-05T05:11:20.793Z,45
2017-07-05T05:12:20.502Z,40
2017-07-05T05:13:35.752Z,40
2017-07-05T05:14:35.468Z,40
2017-07-05T05:15:21.192Z,40
2017-07-05T05:16:20.933Z,45
2017-07-05T05:17:20.942Z,45
2017-07-05T05:18:21.287Z,45
2017-07-05T05:19:20.976Z,45
2017-07-05T05:20:35.606Z,40
2017-07-05T05:21:21.037Z,35
2017-07-05T05:23:21.085Z,30
2017-07-05T05:24:21.434Z,30
2017-07-05T05:25:21.134Z,30
2017-07-05T05:26:21.455Z,25
2017-07-05T05:27:36.130Z,30
2017-07-05T05:28:35.807Z,30
2017-07-05T05:29:21.521Z,30
2017-07-05T05:30:36.164Z,30
2017-07-05T05:31:21.633Z,35
2017-07-05T05:32:21.303Z,35
2017-07-05T05:33:21.614Z,35
2017-07-05T05:34:21.633Z,40
2017-07-05T05:35:21.672Z,40
2017-07-05T05:36:21.712Z,40
2017-07-05T05:37:21.711Z,40
2017-07-05T05:38:36.037Z,45
2017-07-05T05:39:21.443Z,45
2017-07-05T05:40:36.402Z,45
2017-07-05T05:41:36.436Z,40
2017-07-05T05:42:21.850Z,35
2017-07-05T05:43:36.523Z,35
2017-07-05T05:44:21.883Z,35
2017-07-05T05:45:21.613Z,35
2017-07-05T05:46:21.620Z,35
2017-07-05T05:47:21.652Z,35
2017-07-05T05:48:36.576Z,35
2017-07-05T05:49:22.024Z,40
2017-07-05T05:51:51.251Z,40
2017-07-05T05:53:21.787Z,45
2017-07-05T05:54:21.818Z,45
2017-07-05T05:55:22.173Z,45
2017-07-05T05:56:51.051Z,45
2017-07-05T05:57:36.809Z,45
2017-07-05T05:58:21.890Z,45
2017-07-05T05:59:22.239Z,45
2017-07-05T06:00:22.336Z,45
2017-07-05T06:01:21.672Z,45
2017-07-05T06:02:22.006Z,40
2017-07-05T06:03:36.946Z,40
2017-07-05T06:04:22.056Z,35
2017-07-05T06:05:22.455Z,35
2017-07-05T06:06:36.688Z,30
2017-07-05T06:07:22.445Z,30
2017-07-05T06:08:22.448Z,25
2017-07-05T06:09:22.481Z,25
2017-07-05T06:10:22.506Z,25
2017-07-05T06:11:22.555Z,25
2017-07-05T06:12:37.156Z,25
2017-07-05T06:13:22.576Z,25
2017-07-05T06:14:22.623Z,25
2017-07-05T06:15:21.678Z,25
2017-07-05T06:16:21.717Z,25
2017-07-05T06:17:22.665Z,25
2017-07-05T06:18:22.388Z,25
2017-07-05T06:19:37.031Z,25
2017-07-05T06:20:22.431Z,25
2017-07-05T06:21:22.448Z,25
2017-07-05T06:22:36.743Z,25
2017-07-05T06:23:21.874Z,30
2017-07-05T06:25:22.236Z,35
2017-07-05T06:26:21.932Z,40
2017-07-05T06:27:22.913Z,40
2017-07-05T06:28:37.522Z,40
2017-07-05T06:29:22.318Z,35
2017-07-05T06:30:37.637Z,30
2017-07-05T06:31:37.575Z,25
2017-07-05T06:32:37.639Z,25
2017-07-05T06:33:22.729Z,25
2017-07-05T06:34:22.765Z,25
2017-07-05T06:35:22.789Z,25
2017-07-05T06:36:23.156Z,25
2017-07-05T06:37:22.825Z,25
2017-07-05T06:38:23.162Z,25
2017-07-05T06:39:23.158Z,25
2017-07-05T06:40:23.234Z,25
2017-07-05T06:41:22.930Z,30
2017-07-05T06:42:22.638Z,35
2017-07-05T06:43:37.887Z,50
2017-07-05T06:44:23.319Z,55
2017-07-05T06:46:22.738Z,60
2017-07-05T06:47:23.073Z,55
2017-07-05T06:48:23.412Z,40
2017-07-05T06:49:23.414Z,30
2017-07-05T06:50:23.471Z,30
2017-07-05T06:51:23.456Z,30
2017-07-05T06:52:23.194Z,35
2017-07-05T06:53:23.506Z,45
2017-07-05T06:54:23.251Z,50
2017-07-05T06:55:22.923Z,50
2017-07-05T06:56:23.610Z,50
2017-07-05T06:57:23.613Z,50
2017-07-05T06:58:23.322Z,50
2017-07-05T06:59:23.021Z,50
2017-07-05T07:01:38.316Z,50
2017-07-05T07:02:23.110Z,50
2017-07-05T07:03:38.030Z,50
2017-07-05T07:04:23.794Z,50
2017-07-05T07:05:23.839Z,50
2017-07-05T07:06:23.508Z,50
2017-07-05T07:07:23.526Z,45
2017-07-05T07:08:23.557Z,45
2017-07-05T07:09:38.185Z,45
2017-07-05T07:10:23.892Z,50
2017-07-05T07:11:23.950Z,55
2017-07-05T07:12:38.233Z,65
2017-07-05T07:13:23.981Z,65
2017-07-05T07:14:23.669Z,65
2017-07-05T07:15:38.380Z,65
2017-07-05T07:16:24.074Z,65
2017-07-05T07:17:23.444Z,70
2017-07-05T07:18:23.781Z,70
2017-07-05T07:19:23.804Z,75
2017-07-05T07:20:38.756Z,75
2017-07-05T07:21:24.214Z,75
2017-07-05T07:22:23.253Z,75
2017-07-05T07:23:23.636Z,75
2017-07-05T07:24:23.941Z,75
2017-07-05T07:25:24.242Z,80
2017-07-05T07:27:24.316Z,70
2017-07-05T07:28:24.336Z,65
2017-07-05T07:30:24.088Z,60
2017-07-05T07:31:39.001Z,60
2017-07-05T07:32:24.137Z,60
2017-07-05T07:33:24.153Z,60
2017-07-05T07:34:24.166Z,55
2017-07-05T07:35:23.538Z,55
2017-07-05T07:36:24.237Z,55
2017-07-05T07:38:23.935Z,55
2017-07-05T07:39:23.988Z,55
2017-07-05T07:40:24.342Z,55
2017-07-05T07:41:24.330Z,55
2017-07-05T07:42:24.645Z,55
2017-07-05T07:43:38.984Z,55
2017-07-05T07:44:38.688Z,55
2017-07-05T07:45:24.401Z,55
2017-07-05T07:46:24.140Z,60
2017-07-05T07:47:39.372Z,70
2017-07-05T07:48:24.504Z,65
2017-07-05T07:49:24.509Z,70
2017-07-05T07:50:24.535Z,70
2017-07-05T07:51:24.292Z,70
2017-07-05T07:52:39.503Z,70
2017-07-05T07:53:39.501Z,70
2017-07-05T07:54:24.326Z,70
2017-07-05T07:55:24.327Z,70
2017-07-05T07:56:24.694Z,70
2017-07-05T07:57:24.697Z,65
2017-07-05T07:58:23.781Z,65
2017-07-05T07:59:24.424Z,65
2017-07-05T08:00:39.951Z,65
2017-07-05T08:01:24.158Z,65
2017-07-05T08:02:25.137Z,65
2017-07-05T08:03:39.774Z,65
2017-07-05T08:04:39.454Z,65
2017-07-05T08:05:24.897Z,65
2017-07-05T08:06:39.803Z,65
2017-07-05T08:07:39.539Z,70
2017-07-05T08:08:40.148Z,70
2017-07-05T08:09:39.885Z,75
2017-07-05T08:10:39.927Z,80
2017-07-05T08:11:25.041Z,85
2017-07-05T08:12:25.058Z,95
2017-07-05T08:13:24.748Z,95
2017-07-05T08:15:25.205Z,115
2017-07-05T08:16:24.194Z,120
2017-07-05T08:17:24.877Z,125
2017-07-05T08:18:40.249Z,130
2017-07-05T08:19:25.546Z,140
2017-07-05T08:20:25.231Z,145
2017-07-05T08:21:25.278Z,160
2017-07-05T08:22:24.671Z,175
2017-07-05T08:23:24.669Z,180
2017-07-05T08:24:40.229Z,185
2017-07-05T08:25:25.379Z,185
2017-07-05T08:26:25.069Z,180
2017-07-05T08:27:25.441Z,180
2017-07-05T08:28:25.477Z,185
2017-07-05T08:29:25.575Z,190
2017-07-05T08:30:39.765Z,200
2017-07-05T08:31:25.809Z,215
2017-07-05T08:32:25.260Z,240
2017-07-05T08:33:25.888Z,270
2017-07-05T08:34:25.908Z,305
2017-07-05T08:35:25.957Z,305
2017-07-05T08:36:25.314Z,285
2017-07-05T08:37:25.333Z,275
2017-07-05T08:38:26.014Z,275
2017-07-05T08:39:25.064Z,280
2017-07-05T08:40:25.729Z,290
2017-07-05T08:41:40.674Z,290
2017-07-05T08:42:26.098Z,370
2017-07-05T08:43:25.786Z,370
2017-07-05T08:44:25.944Z,330
2017-07-05T08:45:26.166Z,330
2017-07-05T08:46:26.206Z,430
2017-07-05T08:47:40.493Z,310
2017-07-05T08:49:25.934Z,320
2017-07-05T08:50:55.507Z,305
2017-07-05T08:51:26.336Z,300
2017-07-05T08:52:26.579Z,295
2017-07-05T08:53:26.061Z,285
2017-07-05T08:54:26.382Z,275
2017-07-05T08:55:26.260Z,275
2017-07-05T08:56:26.121Z,275
2017-07-05T08:57:26.166Z,280
2017-07-05T08:58:26.179Z,295
2017-07-05T08:59:26.528Z,300
2017-07-05T09:00:26.372Z,305
2017-07-05T09:01:26.266Z,340
2017-07-05T09:03:41.280Z,370
2017-07-05T09:04:41.261Z,360
2017-07-05T09:05:26.678Z,345
2017-07-05T09:06:55.898Z,315
2017-07-05T09:07:26.729Z,315
2017-07-05T09:08:26.740Z,335
2017-07-05T09:09:26.796Z,335
2017-07-05T09:10:26.959Z,345
2017-07-05T09:11:26.843Z,365
2017-07-05T09:12:26.549Z,370
2017-07-05T09:13:26.908Z,355
2017-07-05T09:14:26.900Z,365
2017-07-05T09:15:41.225Z,345
2017-07-05T09:16:26.649Z,340
2017-07-05T09:17:26.775Z,315
2017-07-05T09:18:26.744Z,310
2017-07-05T09:19:41.640Z,305
2017-07-05T09:20:26.799Z,310
2017-07-05T09:21:27.106Z,305
2017-07-05T09:22:41.704Z,285
2017-07-05T09:23:26.539Z,275
2017-07-05T09:24:26.889Z,260
2017-07-05T09:25:26.883Z,250
2017-07-05T09:26:27.233Z,245
2017-07-05T09:27:41.861Z,240
2017-07-05T09:28:27.300Z,240
2017-07-05T09:29:26.998Z,240
2017-07-05T09:30:27.396Z,240
2017-07-05T09:31:26.723Z,250
2017-07-05T09:32:26.769Z,255
2017-07-05T09:33:26.767Z,260
2017-07-05T09:34:27.159Z,265
2017-07-05T09:35:42.082Z,260
2017-07-05T09:36:27.194Z,270
2017-07-05T09:37:27.348Z,295
2017-07-05T09:38:42.154Z,340
2017-07-05T09:39:27.591Z,455
2017-07-05T09:40:42.294Z,355
2017-07-05T09:41:26.682Z,345
2017-07-05T09:42:42.244Z,360
2017-07-05T09:43:27.418Z,375
2017-07-05T09:44:27.085Z,365
2017-07-05T09:45:27.119Z,365
2017-07-05T09:46:27.479Z,345
2017-07-05T09:47:27.898Z,335
2017-07-05T09:48:27.485Z,335
2017-07-05T09:49:42.458Z,315
2017-07-05T09:50:42.141Z,305
2017-07-05T09:51:42.512Z,305
2017-07-05T09:52:27.300Z,340
2017-07-05T09:53:42.580Z,355
2017-07-05T09:54:27.677Z,375
2017-07-05T09:55:27.995Z,335
2017-07-05T09:56:27.464Z,295
2017-07-05T09:57:28.094Z,290
2017-07-05T09:58:27.774Z,270
2017-07-05T09:59:27.807Z,255
2017-07-05T10:00:42.752Z,220
2017-07-05T10:01:42.758Z,200
2017-07-05T10:02:27.548Z,195
2017-07-05T10:03:28.023Z,205
2017-07-05T10:05:27.977Z,255
2017-07-05T10:06:42.919Z,250
2017-07-05T10:07:28.036Z,275
2017-07-05T10:08:28.354Z,300
2017-07-05T10:09:28.140Z,260
2017-07-05T10:10:28.408Z,245
2017-07-05T10:11:43.054Z,225
2017-07-05T10:12:28.824Z,235
2017-07-05T10:13:28.552Z,230
2017-07-05T10:14:43.102Z,250
2017-07-05T10:15:28.138Z,280
2017-07-05T10:16:42.607Z,240
2017-07-05T10:17:43.195Z,220
2017-07-05T10:18:28.344Z,210
2017-07-05T10:19:28.647Z,205
2017-07-05T10:20:28.371Z,205
2017-07-05T10:21:28.373Z,210
2017-07-05T10:22:28.150Z,205
2017-07-05T10:23:28.143Z,195
2017-07-05T10:24:28.152Z,200
2017-07-05T10:25:43.444Z,200
2017-07-05T10:26:28.558Z,195
2017-07-05T10:27:28.252Z,200
2017-07-05T10:28:28.644Z,320
2017-07-05T10:29:28.294Z,290
2017-07-05T10:30:28.982Z,230
2017-07-05T10:31:28.769Z,215
2017-07-05T10:32:28.705Z,190
2017-07-05T10:33:43.326Z,165
2017-07-05T10:34:29.081Z,160
2017-07-05T10:35:28.660Z,175
2017-07-05T10:36:29.126Z,200
2017-07-05T10:37:29.164Z,330
2017-07-05T10:38:29.180Z,240
2017-07-05T10:39:43.792Z,240
2017-07-05T10:40:28.928Z,225
2017-07-05T10:41:44.151Z,215
2017-07-05T10:42:28.354Z,220
2017-07-05T10:44:29.083Z,205
2017-07-05T10:45:43.654Z,180
2017-07-05T10:46:28.751Z,165
2017-07-05T10:48:28.863Z,150
2017-07-05T10:49:43.459Z,155
2017-07-05T10:51:28.898Z,185
2017-07-05T10:52:29.603Z,230
2017-07-05T10:53:29.583Z,225
2017-07-05T10:54:29.371Z,235
2017-07-05T10:56:29.372Z,250
2017-07-05T10:57:43.991Z,280
2017-07-05T10:58:29.715Z,315
2017-07-05T10:59:29.122Z,260
2017-07-05T11:00:29.139Z,250
2017-07-05T11:01:29.503Z,285
2017-07-05T11:02:29.189Z,300
2017-07-05T11:03:29.732Z,320
2017-07-05T11:04:29.948Z,300
2017-07-05T11:05:29.593Z,305
2017-07-05T11:06:29.785Z,285
2017-07-05T11:08:29.686Z,200
2017-07-05T11:09:30.054Z,275
2017-07-05T11:10:29.721Z,225
2017-07-05T11:11:29.780Z,255
2017-07-05T11:12:30.038Z,240
2017-07-05T11:13:44.748Z,190
2017-07-05T11:14:44.750Z,180
2017-07-05T11:15:44.479Z,175
2017-07-05T11:16:29.892Z,170
2017-07-05T11:17:30.330Z,165
2017-07-05T11:18:30.276Z,170
2017-07-05T11:19:44.963Z,165
2017-07-05T11:20:30.553Z,165
2017-07-05T11:21:30.332Z,160
2017-07-05T11:22:30.093Z,160
2017-07-05T11:23:45.089Z,170
2017-07-05T11:24:30.427Z,180
2017-07-05T11:25:30.144Z,190
2017-07-05T11:26:29.917Z,190
2017-07-05T11:27:30.215Z,200
2017-07-05T11:28:45.134Z,220
2017-07-05T11:29:45.233Z,215
2017-07-05T11:30:30.642Z,315
2017-07-05T11:31:30.321Z,305
2017-07-05T11:32:30.023Z,300
2017-07-05T11:34:30.384Z,295
2017-07-05T11:35:30.427Z,290
2017-07-05T11:36:30.430Z,295
2017-07-05T11:37:30.805Z,305
2017-07-05T11:38:30.808Z,315
2017-07-05T11:39:30.853Z,225
2017-07-05T11:40:30.943Z,240
2017-07-05T11:41:30.904Z,225
2017-07-05T11:42:45.519Z,230
2017-07-05T11:44:30.739Z,330
2017-07-05T11:45:45.602Z,335
2017-07-05T11:46:45.643Z,235
2017-07-05T11:47:45.391Z,220
2017-07-05T11:48:30.751Z,220
2017-07-05T11:49:31.125Z,225
2017-07-05T11:50:59.709Z,195
2017-07-05T11:51:30.877Z,195
2017-07-05T11:52:30.879Z,175
2017-07-05T11:53:45.254Z,160
2017-07-05T11:54:30.620Z,160
2017-07-05T11:55:30.957Z,160
2017-07-05T11:56:31.048Z,155
2017-07-05T11:57:31.331Z,150
2017-07-05T11:58:31.093Z,150
2017-07-05T11:59:31.241Z,160
2017-07-05T12:02:31.587Z,210
2017-07-05T12:03:30.639Z,270
2017-07-05T12:04:31.206Z,275
2017-07-05T12:05:31.229Z,280
2017-07-05T12:06:31.289Z,285
2017-07-05T12:07:31.590Z,290
2017-07-05T12:08:31.075Z,290
2017-07-05T12:09:31.765Z,295
2017-07-05T12:10:45.981Z,285
2017-07-05T12:11:31.381Z,280
2017-07-05T12:12:46.012Z,210
2017-07-05T12:13:31.821Z,200
2017-07-05T12:14:45.775Z,190
2017-07-05T12:15:31.730Z,180
2017-07-05T12:16:46.449Z,165
2017-07-05T12:17:31.657Z,160
2017-07-05T12:18:31.741Z,145
2017-07-05T12:19:31.672Z,140
2017-07-05T12:20:46.252Z,135
2017-07-05T12:21:31.357Z,135
2017-07-05T12:23:46.001Z,145
2017-07-05T12:24:31.786Z,150
2017-07-05T12:25:32.223Z,155
2017-07-05T12:26:31.829Z,150
2017-07-05T12:27:32.157Z,150
2017-07-05T12:28:31.681Z,145
2017-07-05T12:29:31.882Z,145
2017-07-05T12:30:31.617Z,145
2017-07-05T12:31:32.000Z,150
2017-07-05T12:32:46.908Z,160
2017-07-05T12:33:46.611Z,165
2017-07-05T12:34:31.712Z,165
2017-07-05T12:35:32.181Z,165
2017-07-05T12:36:32.134Z,160
2017-07-05T12:37:32.430Z,160
2017-07-05T12:38:46.731Z,160
2017-07-05T12:39:32.170Z,165
2017-07-05T12:40:32.169Z,165
2017-07-05T12:41:32.223Z,165
2017-07-05T12:42:32.441Z,165
2017-07-05T12:43:32.601Z,165
2017-07-05T12:44:32.610Z,180
2017-07-05T12:45:32.388Z,180
2017-07-05T12:46:32.670Z,195
2017-07-05T12:47:32.374Z,230
2017-07-05T12:48:47.872Z,260
2017-07-05T12:49:32.733Z,265
2017-07-05T12:50:32.767Z,205
2017-07-05T12:51:32.486Z,215
2017-07-05T12:52:47.148Z,200
2017-07-05T12:53:47.461Z,200
2017-07-05T12:54:32.574Z,195
2017-07-05T12:55:33.124Z,190
2017-07-05T12:56:32.933Z,190
2017-07-05T12:57:47.566Z,190
2017-07-05T12:58:32.985Z,185
2017-07-05T12:59:33.086Z,185
2017-07-05T13:00:47.427Z,180
2017-07-05T13:01:33.075Z,180
2017-07-05T13:02:32.801Z,180
2017-07-05T13:03:47.726Z,185
2017-07-05T13:04:32.937Z,190
2017-07-05T13:05:33.182Z,220
2017-07-05T13:06:47.798Z,195
2017-07-05T13:07:32.605Z,195
2017-07-05T13:08:32.946Z,190
2017-07-05T13:09:32.982Z,185
2017-07-05T13:10:33.817Z,175
2017-07-05T13:13:47.734Z,190
2017-07-05T13:14:33.117Z,190
2017-07-05T13:15:33.444Z,190
2017-07-05T13:16:33.487Z,190
2017-07-05T13:17:33.486Z,190
2017-07-05T13:18:32.906Z,190
2017-07-05T13:19:33.559Z,190
2017-07-05T13:20:33.325Z,185
2017-07-05T13:21:33.633Z,180
2017-07-05T13:22:32.985Z,180
2017-07-05T13:23:33.394Z,170
2017-07-05T13:24:33.693Z,170
2017-07-05T13:25:33.735Z,170
2017-07-05T13:26:33.751Z,175
2017-07-05T13:27:34.006Z,185
2017-07-05T13:28:33.540Z,190
2017-07-05T13:29:48.427Z,195
2017-07-05T13:30:48.657Z,220
2017-07-05T13:31:33.878Z,265
2017-07-05T13:32:33.302Z,280
2017-07-05T13:33:33.732Z,220
2017-07-05T13:35:47.968Z,190
2017-07-05T13:36:34.033Z,190
2017-07-05T13:37:48.659Z,195
2017-07-05T13:39:33.839Z,185
2017-07-05T13:40:33.592Z,180
2017-07-05T13:41:34.153Z,180
2017-07-05T13:42:34.195Z,175
2017-07-05T13:43:48.483Z,175
2017-07-05T13:44:32.982Z,185
2017-07-05T13:45:48.222Z,185
2017-07-05T13:46:33.989Z,185
2017-07-05T13:47:48.594Z,205
2017-07-05T13:48:34.351Z,260
2017-07-05T13:49:34.050Z,260
2017-07-05T13:50:34.093Z,255
2017-07-05T13:52:48.741Z,220
2017-07-05T13:53:49.088Z,220
2017-07-05T13:54:34.499Z,255
2017-07-05T13:55:34.698Z,170
2017-07-05T13:56:34.291Z,170
2017-07-05T13:57:48.889Z,260
2017-07-05T13:58:49.322Z,185
2017-07-05T13:59:34.715Z,210
2017-07-05T14:00:34.021Z,260
2017-07-05T14:01:34.392Z,255
2017-07-05T14:02:34.190Z,255
2017-07-05T14:03:34.440Z,250
2017-07-05T14:04:34.773Z,170
2017-07-05T14:05:35.240Z,160
2017-07-05T14:06:49.162Z,160
2017-07-05T14:07:49.465Z,160
2017-07-05T14:08:49.330Z,155
2017-07-05T14:10:34.631Z,170
2017-07-05T14:11:34.961Z,155
2017-07-05T14:12:35.190Z,145
2017-07-05T14:13:35.020Z,155
2017-07-05T14:14:34.752Z,240
2017-07-05T14:15:35.118Z,230
2017-07-05T14:16:34.778Z,250
2017-07-05T14:17:35.143Z,245
2017-07-05T14:18:35.531Z,225
2017-07-05T14:19:35.239Z,155
2017-07-05T14:20:34.910Z,160
2017-07-05T14:21:34.922Z,160
2017-07-05T14:22:49.339Z,180
2017-07-05T14:23:49.258Z,165
2017-07-05T14:24:35.026Z,165
2017-07-05T14:25:35.368Z,155
2017-07-05T14:26:35.382Z,150
2017-07-05T14:27:35.073Z,140
2017-07-05T14:28:35.461Z,140
2017-07-05T14:29:35.157Z,140
2017-07-05T14:30:35.481Z,145
2017-07-05T14:31:34.567Z,145
2017-07-05T14:32:35.206Z,145
2017-07-05T14:33:35.252Z,145
2017-07-05T14:34:35.642Z,145
2017-07-05T14:35:35.372Z,155
2017-07-05T14:36:35.337Z,150
2017-07-05T14:37:35.386Z,145
2017-07-05T14:38:50.050Z,150
2017-07-05T14:39:35.723Z,155
2017-07-05T14:41:35.470Z,145
2017-07-05T14:42:35.530Z,145
2017-07-05T14:43:36.041Z,150
2017-07-05T14:44:35.740Z,235
2017-07-05T14:45:35.905Z,225
2017-07-05T14:46:35.936Z,170
2017-07-05T14:47:50.550Z,140
2017-07-05T14:48:35.340Z,185
2017-07-05T14:49:36.062Z,135
2017-07-05T14:50:50.812Z,145
2017-07-05T14:51:50.386Z,145
2017-07-05T14:52:35.455Z,145
2017-07-05T14:53:35.774Z,145
2017-07-05T14:54:36.144Z,140
2017-07-05T14:55:35.849Z,135
2017-07-05T14:56:35.884Z,145
2017-07-05T14:57:35.871Z,140
2017-07-05T14:58:50.845Z,150
2017-07-05T14:59:50.930Z,155
2017-07-05T15:00:35.988Z,210
2017-07-05T15:01:36.016Z,130
2017-07-05T15:02:35.708Z,125